Time;durP1;ratioP1;P1;durP2;ratioP2;P2;SDS_P1;SDS_P2;PMS_P1;PMS_P2;Temp;Humidity;BMP_temperature;BMP_pressure;BME280_temperature;BME280_humidity;BME280_pressure;Samples;Min_cycle;Max_cycle;Signal;HPM_P1;HPM_P2
2021/11/26 00:01:34;;;;;;;12.57;3.60;;;3.90;99.90;;;;;;4995503;28;20084;-57
2021/11/26 00:04:01;;;;;;;12.77;3.60;;;3.80;99.90;;;;;;5019127;28;20053;-58
2021/11/26 00:06:28;;;;;;;15.18;3.90;;;3.90;99.90;;;;;;4993176;28;20113;-56
2021/11/26 00:08:54;;;;;;;14.02;3.75;;;3.90;99.90;;;;;;4996992;28;20124;-56
2021/11/26 00:11:21;;;;;;;11.20;3.63;;;3.90;99.90;;;;;;4977447;28;20038;-57
2021/11/26 00:13:49;;;;;;;13.23;3.70;;;3.90;99.90;;;;;;4984186;28;20048;-58
2021/11/26 00:16:18;;;;;;;17.55;4.20;;;3.90;99.90;;;;;;5013196;28;20041;-58
2021/11/26 00:18:49;;;;;;;14.57;3.78;;;4.00;99.90;;;;;;5028682;28;20136;-58
2021/11/26 00:21:16;;;;;;;11.80;3.92;;;4.00;99.90;;;;;;5029212;28;20575;-57
2021/11/26 00:23:42;;;;;;;10.48;3.60;;;4.10;99.90;;;;;;5010981;28;20054;-58
2021/11/26 00:26:08;;;;;;;8.48;3.38;;;4.10;99.90;;;;;;5002385;28;20123;-58
2021/11/26 00:28:34;;;;;;;15.70;3.20;;;4.10;99.90;;;;;;5001633;28;20775;-58
2021/11/26 00:31:00;;;;;;;10.60;3.35;;;4.10;99.90;;;;;;5026728;28;20271;-58
2021/11/26 00:33:26;;;;;;;12.63;3.65;;;4.10;99.90;;;;;;5032075;28;20127;-56
2021/11/26 00:35:54;;;;;;;13.00;3.60;;;4.20;99.90;;;;;;4983975;28;20140;-56
2021/11/26 00:38:20;;;;;;;9.93;3.40;;;4.20;99.90;;;;;;5034035;28;20042;-56
2021/11/26 00:40:46;;;;;;;12.95;3.53;;;4.20;99.90;;;;;;5032067;28;20056;-56
2021/11/26 00:43:12;;;;;;;13.30;3.85;;;4.20;99.90;;;;;;5015947;28;20053;-56
2021/11/26 00:45:38;;;;;;;10.40;4.00;;;4.20;99.90;;;;;;5030556;28;20115;-56
2021/11/26 00:48:04;;;;;;;9.52;3.47;;;4.20;99.90;;;;;;5012916;28;20087;-57
2021/11/26 00:50:32;;;;;;;8.60;3.22;;;4.20;99.90;;;;;;5030859;28;20497;-56
2021/11/26 00:52:58;;;;;;;18.00;3.65;;;4.10;99.90;;;;;;5016030;28;20049;-56
2021/11/26 00:55:24;;;;;;;10.13;3.88;;;4.10;99.90;;;;;;5033582;28;20049;-55
2021/11/26 00:57:51;;;;;;;11.85;3.97;;;4.10;99.90;;;;;;4998155;28;20052;-57
2021/11/26 01:00:18;;;;;;;7.40;3.80;;;4.10;99.90;;;;;;5030250;28;20535;-55
2021/11/26 01:02:45;;;;;;;12.07;3.60;;;4.10;99.90;;;;;;4996046;28;20057;-54
2021/11/26 01:05:12;;;;;;;10.32;3.20;;;4.00;99.90;;;;;;5029776;28;20055;-56
2021/11/26 01:07:38;;;;;;;13.20;3.50;;;4.00;99.90;;;;;;5001441;28;20057;-56
2021/11/26 01:10:07;;;;;;;15.77;3.85;;;4.00;99.90;;;;;;5029996;28;20448;-56
2021/11/26 01:12:35;;;;;;;8.05;3.22;;;4.00;99.90;;;;;;5029000;28;20103;-58
2021/11/26 01:15:03;;;;;;;8.52;3.15;;;4.00;99.90;;;;;;5029776;28;20061;-57
2021/11/26 01:17:29;;;;;;;8.05;3.15;;;4.00;99.90;;;;;;5016054;28;20787;-56
2021/11/26 01:19:55;;;;;;;9.85;3.03;;;3.90;99.90;;;;;;5035740;28;20140;-53
2021/11/26 01:22:21;;;;;;;12.60;3.40;;;3.90;99.90;;;;;;5036604;28;20099;-54
2021/11/26 01:24:47;;;;;;;9.90;3.00;;;3.90;99.90;;;;;;5029377;28;20096;-58
2021/11/26 01:27:14;;;;;;;8.73;2.60;;;3.80;99.90;;;;;;5029373;28;20057;-55
2021/11/26 01:29:40;;;;;;;9.15;2.78;;;3.80;99.90;;;;;;5012610;28;20420;-56
2021/11/26 01:32:06;;;;;;;8.18;3.10;;;3.80;99.90;;;;;;5032792;28;20492;-56
2021/11/26 01:34:33;;;;;;;12.32;3.22;;;3.80;99.90;;;;;;5029549;28;20125;-57
2021/11/26 01:36:59;;;;;;;8.77;2.65;;;3.70;99.90;;;;;;5011779;28;20064;-57
2021/11/26 01:39:25;;;;;;;8.63;2.83;;;3.70;99.90;;;;;;5029345;28;20064;-58
2021/11/26 01:41:52;;;;;;;6.45;2.50;;;3.70;99.90;;;;;;5012975;28;20057;-57
2021/11/26 01:44:19;;;;;;;9.57;2.33;;;3.70;99.90;;;;;;5032349;28;20052;-56
2021/11/26 01:46:45;;;;;;;7.93;2.47;;;3.70;99.90;;;;;;4995396;28;20421;-54
2021/11/26 01:49:12;;;;;;;11.23;2.92;;;3.60;99.90;;;;;;5012650;28;20443;-55
2021/11/26 01:51:39;;;;;;;5.13;2.80;;;3.70;99.90;;;;;;4995044;28;20052;-58
2021/11/26 01:54:06;;;;;;;7.72;2.88;;;3.60;99.90;;;;;;5029906;28;20092;-58
2021/11/26 01:56:33;;;;;;;5.70;2.10;;;3.60;99.90;;;;;;5029300;28;20085;-56
2021/11/26 01:59:00;;;;;;;8.35;2.33;;;3.60;99.90;;;;;;5029107;28;20108;-57
2021/11/26 02:01:27;;;;;;;7.70;2.72;;;3.60;99.90;;;;;;5012559;28;20061;-57
2021/11/26 02:03:53;;;;;;;9.07;2.60;;;3.60;99.90;;;;;;5012361;28;20045;-55
2021/11/26 02:06:19;;;;;;;12.25;3.10;;;3.60;99.90;;;;;;5028686;28;20120;-57
2021/11/26 02:08:48;;;;;;;6.93;2.63;;;3.50;99.90;;;;;;5030101;28;20080;-57
2021/11/26 02:11:15;;;;;;;13.20;3.85;;;3.50;99.90;;;;;;4993714;28;20141;-58
2021/11/26 02:13:42;;;;;;;16.30;3.80;;;3.50;99.90;;;;;;5029284;28;20064;-58
2021/11/26 02:16:09;;;;;;;12.73;4.22;;;3.60;99.90;;;;;;5010922;28;20080;-57
2021/11/26 02:18:36;;;;;;;13.98;4.35;;;3.60;99.90;;;;;;5031604;28;20087;-56
2021/11/26 02:21:03;;;;;;;11.93;4.32;;;3.60;99.90;;;;;;5028590;28;20049;-57
2021/11/26 02:23:30;;;;;;;12.32;5.28;;;3.70;99.90;;;;;;5011343;28;20049;-55
2021/11/26 02:25:56;;;;;;;15.93;5.88;;;3.70;99.90;;;;;;4994430;28;20057;-55
2021/11/26 02:28:24;;;;;;;15.32;5.50;;;3.80;99.90;;;;;;5030381;28;20056;-58
2021/11/26 02:30:51;;;;;;;14.75;5.53;;;3.80;99.90;;;;;;5011929;28;20099;-58
2021/11/26 02:33:20;;;;;;;15.50;5.45;;;3.80;99.90;;;;;;5028722;28;20041;-56
2021/11/26 02:35:51;;;;;;;16.35;6.25;;;3.80;99.90;;;;;;5028429;28;20124;-58
2021/11/26 02:38:18;;;;;;;14.73;5.78;;;3.90;99.90;;;;;;5028895;28;20091;-58
2021/11/26 02:40:44;;;;;;;9.35;5.25;;;3.90;99.90;;;;;;5014394;28;20107;-56
2021/11/26 02:43:12;;;;;;;14.88;5.47;;;4.00;99.90;;;;;;5031529;28;20139;-57
2021/11/26 02:45:39;;;;;;;14.38;5.82;;;4.00;99.90;;;;;;5029162;28;20046;-55
2021/11/26 02:48:07;;;;;;;13.57;5.22;;;4.00;99.90;;;;;;5011001;28;20049;-56
2021/11/26 02:50:34;;;;;;;10.85;5.00;;;4.00;99.90;;;;;;5031443;28;20045;-58
2021/11/26 02:53:00;;;;;;;16.02;6.00;;;4.00;99.90;;;;;;5011028;28;20049;-58
2021/11/26 02:55:29;;;;;;;10.40;5.30;;;4.10;99.90;;;;;;5029287;28;20121;-57
2021/11/26 02:57:56;;;;;;;9.80;4.22;;;4.10;99.90;;;;;;5029036;28;20057;-58
2021/11/26 03:00:24;;;;;;;12.27;4.57;;;4.10;99.90;;;;;;5032695;28;20687;-58
2021/11/26 03:02:52;;;;;;;10.18;3.97;;;4.20;99.90;;;;;;5028998;28;20056;-57
2021/11/26 03:05:18;;;;;;;8.18;2.63;;;4.20;99.90;;;;;;5026718;28;20806;-56
2021/11/26 03:07:45;;;;;;;5.70;2.30;;;4.20;99.90;;;;;;5027435;28;20098;-56
2021/11/26 03:10:17;;;;;;;10.85;2.38;;;4.20;99.90;;;;;;5008889;28;20057;-58
2021/11/26 03:12:48;;;;;;;7.30;2.17;;;4.30;99.90;;;;;;5025754;28;20049;-57
2021/11/26 03:15:16;;;;;;;5.03;1.67;;;4.30;99.90;;;;;;5028000;28;20776;-57
2021/11/26 03:17:42;;;;;;;6.50;2.13;;;4.40;99.90;;;;;;5028065;28;20064;-56
2021/11/26 03:20:10;;;;;;;5.05;1.85;;;4.40;99.90;;;;;;4993439;28;20393;-56
2021/11/26 03:22:36;;;;;;;9.55;1.92;;;4.30;99.90;;;;;;5011657;28;20057;-54
2021/11/26 03:25:03;;;;;;;5.38;1.63;;;4.30;99.90;;;;;;4981807;28;20053;-56
2021/11/26 03:27:30;;;;;;;6.47;1.95;;;4.30;99.90;;;;;;5012592;28;20132;-55
2021/11/26 03:29:56;;;;;;;8.00;2.17;;;4.30;99.90;;;;;;5013144;28;20054;-55
2021/11/26 03:32:22;;;;;;;4.75;1.60;;;4.30;99.90;;;;;;5013290;28;20107;-57
2021/11/26 03:34:48;;;;;;;7.20;1.90;;;4.30;99.90;;;;;;4996616;28;20045;-57
2021/11/26 03:37:14;;;;;;;6.18;1.70;;;4.30;99.90;;;;;;5011333;28;20049;-58
2021/11/26 03:39:41;;;;;;;8.55;2.80;;;4.30;99.90;;;;;;5013645;28;20143;-57
2021/11/26 03:42:07;;;;;;;6.97;2.30;;;4.30;99.90;;;;;;5031218;28;20115;-55
2021/11/26 03:44:33;;;;;;;8.07;3.08;;;4.30;99.90;;;;;;5017265;28;20512;-57
2021/11/26 03:46:59;;;;;;;9.70;3.92;;;4.30;99.90;;;;;;4980883;28;20049;-56
2021/11/26 03:49:25;;;;;;;10.32;4.07;;;4.30;99.90;;;;;;5015340;28;20048;-58
2021/11/26 03:51:52;;;;;;;10.40;4.10;;;4.30;99.90;;;;;;4997641;28;20476;-58
2021/11/26 03:54:18;;;;;;;6.95;3.63;;;4.30;99.90;;;;;;5013682;28;20439;-56
2021/11/26 03:56:44;;;;;;;7.15;3.47;;;4.20;99.90;;;;;;5032136;28;20771;-54
2021/11/26 03:59:10;;;;;;;9.07;3.72;;;4.20;99.90;;;;;;5038736;28;20552;-56
2021/11/26 04:01:36;;;;;;;6.03;3.30;;;4.20;99.90;;;;;;5031704;28;20115;-56
2021/11/26 04:04:02;;;;;;;6.03;3.22;;;4.20;99.90;;;;;;4997800;28;20076;-58
2021/11/26 04:06:29;;;;;;;7.15;3.38;;;4.20;99.90;;;;;;5028770;28;20527;-56
2021/11/26 04:08:55;;;;;;;7.57;2.70;;;4.10;99.90;;;;;;5011983;28;20053;-56
2021/11/26 04:11:21;;;;;;;5.75;2.65;;;4.10;99.90;;;;;;5015187;28;20655;-56
2021/11/26 04:13:47;;;;;;;6.88;2.92;;;4.10;99.90;;;;;;5012927;28;20392;-56
2021/11/26 04:16:14;;;;;;;6.35;2.40;;;4.10;99.90;;;;;;4996557;28;20068;-55
2021/11/26 04:18:41;;;;;;;3.67;2.20;;;4.00;99.90;;;;;;5013251;28;20123;-56
2021/11/26 04:21:07;;;;;;;5.75;2.40;;;4.00;99.90;;;;;;5000537;28;20045;-56
2021/11/26 04:23:33;;;;;;;4.63;2.00;;;4.00;99.90;;;;;;5031042;28;20540;-55
2021/11/26 04:25:59;;;;;;;3.17;1.90;;;3.90;99.90;;;;;;5030868;28;20061;-55
2021/11/26 04:28:25;;;;;;;7.10;2.50;;;3.90;99.90;;;;;;5031074;28;20476;-55
2021/11/26 04:30:52;;;;;;;6.28;2.70;;;3.90;99.90;;;;;;4998405;28;20114;-56
2021/11/26 04:33:19;;;;;;;6.03;2.80;;;3.90;99.90;;;;;;5030376;28;20097;-56
2021/11/26 04:35:46;;;;;;;5.38;2.70;;;3.90;99.90;;;;;;5012162;28;20056;-55
2021/11/26 04:38:14;;;;;;;7.03;3.38;;;3.90;99.90;;;;;;4995932;28;20493;-56
2021/11/26 04:40:40;;;;;;;7.75;4.20;;;3.90;99.90;;;;;;5013064;28;20079;-56
2021/11/26 04:43:06;;;;;;;7.22;4.57;;;3.90;99.90;;;;;;5033889;28;20053;-58
2021/11/26 04:45:32;;;;;;;10.73;5.30;;;3.90;99.90;;;;;;5034404;28;20412;-56
2021/11/26 04:47:58;;;;;;;9.75;6.43;;;3.90;99.90;;;;;;5013027;28;20058;-56
2021/11/26 04:50:26;;;;;;;12.23;7.55;;;3.90;99.90;;;;;;5012611;28;20647;-56
2021/11/26 04:52:53;;;;;;;16.92;8.52;;;3.90;99.90;;;;;;5013909;28;20045;-58
2021/11/26 04:55:20;;;;;;;20.33;9.07;;;3.90;99.90;;;;;;5012518;28;20058;-56
2021/11/26 04:57:47;;;;;;;17.30;10.20;;;3.90;99.90;;;;;;4963474;28;20081;-57
2021/11/26 05:00:16;;;;;;;20.02;9.60;;;3.90;99.90;;;;;;5012441;28;20068;-58
2021/11/26 05:02:43;;;;;;;14.88;9.48;;;3.90;99.90;;;;;;5030103;28;20056;-54
2021/11/26 05:05:10;;;;;;;14.80;9.02;;;4.00;99.90;;;;;;5029560;28;20063;-58
2021/11/26 05:07:36;;;;;;;12.02;8.70;;;4.00;99.90;;;;;;5030196;28;20132;-56
2021/11/26 05:10:07;;;;;;;12.00;8.27;;;4.00;99.90;;;;;;5010233;28;20045;-56
2021/11/26 05:12:37;;;;;;;16.02;8.63;;;4.00;99.90;;;;;;5030053;28;20057;-56
2021/11/26 05:15:04;;;;;;;11.48;8.57;;;4.00;99.90;;;;;;5029630;28;20045;-56
2021/11/26 05:17:30;;;;;;;15.93;7.22;;;4.00;99.90;;;;;;5013875;28;20080;-57
2021/11/26 05:19:58;;;;;;;12.73;7.45;;;4.00;99.90;;;;;;4979694;28;20131;-56
2021/11/26 05:22:24;;;;;;;13.63;7.35;;;3.90;99.90;;;;;;4995630;28;20057;-57
2021/11/26 05:24:50;;;;;;;14.73;7.43;;;3.80;99.90;;;;;;4995818;28;20128;-56
2021/11/26 05:27:17;;;;;;;12.25;7.30;;;3.80;99.90;;;;;;5030038;28;20053;-56
2021/11/26 05:29:43;;;;;;;10.88;7.10;;;3.70;99.90;;;;;;5014041;28;20556;-57
2021/11/26 05:32:11;;;;;;;14.02;7.15;;;3.70;99.90;;;;;;4994280;28;20045;-55
2021/11/26 05:34:38;;;;;;;12.98;7.65;;;3.60;99.90;;;;;;5030304;28;20049;-56
2021/11/26 05:37:05;;;;;;;13.20;7.63;;;3.70;99.90;;;;;;5012001;28;20065;-56
2021/11/26 05:39:31;;;;;;;11.13;7.68;;;3.60;99.90;;;;;;5020027;28;20041;-57
2021/11/26 05:41:57;;;;;;;14.18;7.72;;;3.60;99.90;;;;;;4981246;28;20056;-56
2021/11/26 05:44:23;;;;;;;15.63;8.95;;;3.60;99.90;;;;;;5015231;28;20128;-56
2021/11/26 05:46:49;;;;;;;16.95;8.45;;;3.50;99.90;;;;;;5010822;28;20053;-56
2021/11/26 05:49:15;;;;;;;15.65;8.43;;;3.50;99.90;;;;;;5011467;28;20068;-57
2021/11/26 05:51:41;;;;;;;13.70;8.18;;;3.50;99.90;;;;;;5029261;28;20107;-58
2021/11/26 05:54:08;;;;;;;15.40;8.68;;;3.50;99.90;;;;;;4995559;28;20117;-59
2021/11/26 05:56:34;;;;;;;15.95;10.05;;;3.50;99.90;;;;;;4994466;28;20045;-58
2021/11/26 05:59:00;;;;;;;14.63;9.38;;;3.50;99.90;;;;;;5011874;28;20399;-58
2021/11/26 06:01:27;;;;;;;20.55;11.40;;;3.40;99.90;;;;;;5032299;28;20056;-58
2021/11/26 06:03:53;;;;;;;15.15;10.50;;;3.50;99.90;;;;;;5011601;28;20060;-58
2021/11/26 06:06:19;;;;;;;18.27;10.85;;;3.50;99.90;;;;;;5030599;28;20480;-58
2021/11/26 06:08:45;;;;;;;14.93;10.80;;;3.50;99.90;;;;;;5029428;28;20045;-58
2021/11/26 06:11:11;;;;;;;17.88;10.95;;;3.50;99.90;;;;;;5032338;28;20037;-58
2021/11/26 06:13:37;;;;;;;18.02;11.40;;;3.50;99.90;;;;;;5009480;28;20068;-56
2021/11/26 06:16:04;;;;;;;16.02;10.60;;;3.50;99.90;;;;;;4978374;28;20057;-57
2021/11/26 06:18:30;;;;;;;16.33;10.23;;;3.60;99.90;;;;;;4994805;28;20053;-57
2021/11/26 06:20:56;;;;;;;18.55;11.30;;;3.50;99.90;;;;;;5029733;28;20056;-56
2021/11/26 06:23:22;;;;;;;15.73;10.02;;;3.60;99.90;;;;;;4995382;28;20053;-56
2021/11/26 06:25:48;;;;;;;15.18;9.63;;;3.60;99.90;;;;;;5032761;28;20080;-56
2021/11/26 06:28:14;;;;;;;15.95;9.05;;;3.70;99.90;;;;;;5011861;28;20133;-57
2021/11/26 06:30:40;;;;;;;13.90;9.05;;;3.70;99.90;;;;;;5029338;28;20480;-58
2021/11/26 06:33:07;;;;;;;14.68;8.80;;;3.60;99.90;;;;;;4995117;28;20037;-59
2021/11/26 06:35:33;;;;;;;12.15;8.80;;;3.70;99.90;;;;;;4994179;28;20053;-59
2021/11/26 06:37:59;;;;;;;10.40;6.97;;;3.70;99.90;;;;;;5001705;28;20382;-58
2021/11/26 06:40:26;;;;;;;9.55;6.60;;;3.70;99.90;;;;;;4997016;28;20056;-57
2021/11/26 06:42:52;;;;;;;16.83;7.57;;;3.70;99.90;;;;;;5029264;28;20046;-56
2021/11/26 06:45:19;;;;;;;10.75;6.93;;;3.70;99.90;;;;;;5031947;28;20058;-56
2021/11/26 06:47:47;;;;;;;11.57;6.78;;;3.80;99.90;;;;;;5028657;28;20065;-57
2021/11/26 06:50:14;;;;;;;12.65;6.82;;;3.80;99.90;;;;;;5028962;28;20045;-57
2021/11/26 06:52:40;;;;;;;11.43;5.50;;;3.90;99.90;;;;;;5013469;28;20103;-56
2021/11/26 06:55:08;;;;;;;10.48;5.95;;;3.80;99.90;;;;;;5017975;28;20052;-51
2021/11/26 06:57:35;;;;;;;8.55;4.93;;;3.90;99.90;;;;;;5011395;28;20057;-53
2021/11/26 07:00:04;;;;;;;10.30;5.70;;;3.80;99.90;;;;;;4997106;28;20174;-54
2021/11/26 07:02:30;;;;;;;7.88;5.65;;;3.80;99.90;;;;;;5039129;28;20053;-56
2021/11/26 07:04:57;;;;;;;11.18;5.22;;;3.80;99.90;;;;;;5033484;28;20057;-54
2021/11/26 07:07:23;;;;;;;11.40;5.18;;;3.80;99.90;;;;;;5006305;28;20041;-57
2021/11/26 07:09:49;;;;;;;9.55;4.93;;;3.80;99.90;;;;;;5021867;28;20045;-56
2021/11/26 07:12:15;;;;;;;8.98;5.38;;;3.80;99.90;;;;;;5029867;28;20055;-56
2021/11/26 07:14:43;;;;;;;10.85;5.45;;;3.80;99.90;;;;;;5032254;28;20095;-56
2021/11/26 07:17:10;;;;;;;10.38;5.85;;;3.70;99.90;;;;;;5005391;28;20452;-56
2021/11/26 07:19:38;;;;;;;11.13;5.80;;;3.60;99.90;;;;;;5026920;28;20068;-57
2021/11/26 07:22:05;;;;;;;13.85;6.57;;;3.60;99.90;;;;;;5031373;28;20112;-56
2021/11/26 07:24:31;;;;;;;10.15;6.40;;;3.60;99.90;;;;;;5033351;28;20052;-55
2021/11/26 07:26:58;;;;;;;11.75;6.80;;;3.50;99.90;;;;;;4989296;28;20129;-56
2021/11/26 07:29:24;;;;;;;12.85;6.60;;;3.50;99.90;;;;;;5019883;28;20041;-55
2021/11/26 07:31:51;;;;;;;13.18;7.50;;;3.50;99.90;;;;;;4968269;28;20183;-58
2021/11/26 07:34:17;;;;;;;11.80;7.20;;;3.40;99.90;;;;;;5008443;28;20064;-57
2021/11/26 07:36:43;;;;;;;14.68;7.57;;;3.50;99.90;;;;;;4981500;28;20049;-57
2021/11/26 07:39:09;;;;;;;12.88;7.53;;;3.40;99.90;;;;;;5005050;28;20125;-58
2021/11/26 07:41:35;;;;;;;15.38;7.45;;;3.40;99.90;;;;;;4978495;28;20045;-58
2021/11/26 07:44:02;;;;;;;14.80;7.35;;;3.40;99.90;;;;;;4995321;28;20136;-57
2021/11/26 07:46:28;;;;;;;17.40;9.00;;;3.40;99.90;;;;;;5010912;28;20049;-57
2021/11/26 07:48:54;;;;;;;13.45;8.45;;;3.40;99.90;;;;;;5011195;28;20481;-56
2021/11/26 07:51:20;;;;;;;16.13;8.48;;;3.40;99.90;;;;;;5012287;28;20042;-57
2021/11/26 07:53:46;;;;;;;13.75;8.13;;;3.40;99.90;;;;;;5012886;28;20206;-55
2021/11/26 07:56:12;;;;;;;10.00;7.20;;;3.40;99.90;;;;;;4997770;28;20049;-54
2021/11/26 07:58:38;;;;;;;16.02;7.57;;;3.40;99.90;;;;;;5031859;28;20489;-56
2021/11/26 08:01:04;;;;;;;14.55;6.82;;;3.40;99.90;;;;;;5028127;28;20053;-54
2021/11/26 08:03:31;;;;;;;10.90;7.22;;;3.50;99.90;;;;;;5031277;28;20080;-58
2021/11/26 08:05:57;;;;;;;11.68;6.90;;;3.50;99.90;;;;;;5013635;28;20393;-56
2021/11/26 08:08:23;;;;;;;15.27;7.93;;;3.50;99.90;;;;;;5029948;28;20057;-58
2021/11/26 08:10:49;;;;;;;13.15;7.15;;;3.50;99.90;;;;;;5011969;28;20049;-57
2021/11/26 08:13:15;;;;;;;13.20;6.22;;;3.60;99.90;;;;;;5013270;28;20131;-56
2021/11/26 08:15:42;;;;;;;11.70;6.25;;;3.60;99.90;;;;;;4998505;28;20045;-57
2021/11/26 08:18:08;;;;;;;11.50;6.25;;;3.60;99.90;;;;;;5012085;28;20402;-56
2021/11/26 08:20:37;;;;;;;16.00;5.60;;;3.80;99.90;;;;;;5011166;28;20059;-57
2021/11/26 08:23:03;;;;;;;13.15;5.20;;;3.70;99.90;;;;;;4996236;28;20115;-56
2021/11/26 08:25:30;;;;;;;10.38;4.95;;;3.80;99.90;;;;;;5030600;28;20057;-56
2021/11/26 08:27:57;;;;;;;13.30;5.40;;;3.80;99.90;;;;;;5011489;28;20061;-56
2021/11/26 08:30:23;;;;;;;8.60;4.90;;;3.90;99.90;;;;;;5010928;28;20058;-57
2021/11/26 08:32:52;;;;;;;12.13;4.60;;;4.00;99.90;;;;;;5010894;28;20405;-57
2021/11/26 08:35:18;;;;;;;8.90;5.18;;;4.00;99.90;;;;;;4995279;28;20042;-57
2021/11/26 08:37:45;;;;;;;11.23;4.70;;;4.10;99.90;;;;;;5029224;28;20527;-57
2021/11/26 08:40:11;;;;;;;14.65;4.95;;;4.10;99.90;;;;;;4987264;28;20053;-56
2021/11/26 08:42:38;;;;;;;10.13;4.90;;;4.20;99.90;;;;;;5000940;28;20084;-57
2021/11/26 08:45:05;;;;;;;9.73;4.30;;;4.20;99.90;;;;;;5027290;28;20061;-57
2021/11/26 08:47:31;;;;;;;10.68;5.25;;;4.20;99.90;;;;;;5017505;28;20124;-57
2021/11/26 08:49:57;;;;;;;10.82;4.15;;;4.30;99.90;;;;;;5004433;28;20116;-57
2021/11/26 08:52:24;;;;;;;7.93;4.63;;;4.30;99.90;;;;;;5006200;28;20485;-56
2021/11/26 08:54:50;;;;;;;13.02;4.70;;;4.40;99.90;;;;;;5012362;28;20116;-57
2021/11/26 08:57:18;;;;;;;12.13;4.72;;;4.40;99.90;;;;;;5030317;28;20052;-56
2021/11/26 08:59:44;;;;;;;12.40;5.25;;;4.40;99.90;;;;;;5007110;28;20762;-58
2021/11/26 09:02:12;;;;;;;11.95;4.78;;;4.50;99.90;;;;;;5028564;28;20052;-58
2021/11/26 09:04:39;;;;;;;14.18;5.43;;;4.50;99.90;;;;;;4994638;28;20925;-58
2021/11/26 09:07:05;;;;;;;11.13;4.43;;;4.50;99.90;;;;;;5003838;28;20042;-63
2021/11/26 09:09:31;;;;;;;17.45;4.93;;;4.60;99.90;;;;;;4996253;28;20057;-59
2021/11/26 09:11:57;;;;;;;9.02;4.53;;;4.50;99.90;;;;;;5014355;28;20049;-63
2021/11/26 09:14:23;;;;;;;11.55;4.22;;;4.60;99.90;;;;;;4979813;28;20045;-63
2021/11/26 09:16:49;;;;;;;13.40;4.93;;;4.60;99.90;;;;;;5016175;28;20060;-58
2021/11/26 09:19:16;;;;;;;12.23;4.10;;;4.60;99.90;;;;;;5024238;28;20041;-61
2021/11/26 09:21:42;;;;;;;11.68;4.70;;;4.60;99.90;;;;;;5012226;28;20049;-61
2021/11/26 09:24:08;;;;;;;16.20;4.88;;;4.60;99.90;;;;;;5006110;28;20371;-62
2021/11/26 09:26:35;;;;;;;12.07;5.13;;;4.60;99.90;;;;;;5010256;28;20069;-61
2021/11/26 09:29:01;;;;;;;11.50;4.63;;;4.60;99.90;;;;;;5005434;28;20041;-61
2021/11/26 09:31:27;;;;;;;17.70;4.72;;;4.60;99.90;;;;;;5029703;28;20042;-62
2021/11/26 09:33:55;;;;;;;12.15;4.55;;;4.60;99.90;;;;;;5029792;28;20099;-59
2021/11/26 09:36:23;;;;;;;12.48;4.65;;;4.60;99.90;;;;;;5028564;28;20042;-61
2021/11/26 09:38:50;;;;;;;12.35;5.10;;;4.70;99.90;;;;;;5013113;28;20050;-62
2021/11/26 09:41:17;;;;;;;10.73;3.85;;;4.70;99.90;;;;;;5026166;28;20076;-61
2021/11/26 09:43:46;;;;;;;10.50;5.15;;;4.70;99.90;;;;;;5016327;28;20053;-58
2021/11/26 09:46:13;;;;;;;12.30;4.68;;;4.70;99.90;;;;;;5022743;28;20061;-62
2021/11/26 09:48:39;;;;;;;11.82;4.07;;;4.80;99.90;;;;;;5034834;28;20057;-58
2021/11/26 09:51:06;;;;;;;10.15;4.78;;;4.80;99.90;;;;;;5023261;28;20050;-58
2021/11/26 09:53:33;;;;;;;8.77;4.03;;;4.80;99.90;;;;;;5029293;28;20052;-58
2021/11/26 09:56:03;;;;;;;11.18;3.78;;;4.90;99.90;;;;;;5027087;28;20053;-58
2021/11/26 09:58:31;;;;;;;16.10;5.25;;;4.90;99.90;;;;;;5004760;28;20045;-58
2021/11/26 10:00:59;;;;;;;12.88;4.47;;;5.00;99.90;;;;;;5010533;28;20049;-58
2021/11/26 10:03:58;;;;;;;9.23;4.03;;;5.00;99.90;;;;;;5028902;28;20057;-58
2021/11/26 10:06:34;;;;;;;13.75;4.90;;;5.00;99.90;;;;;;4987252;28;20527;-57
2021/11/26 10:09:18;;;;;;;9.60;4.90;;;5.10;99.90;;;;;;5011060;28;20516;-57
2021/11/26 10:11:56;;;;;;;11.38;6.85;;;5.20;99.90;;;;;;5011348;28;20826;-60
2021/11/26 10:14:29;;;;;;;15.05;6.28;;;5.30;99.90;;;;;;5028112;28;20111;-63
2021/11/26 10:17:06;;;;;;;17.38;4.40;;;5.40;99.90;;;;;;5010046;28;20564;-62
2021/11/26 10:19:38;;;;;;;13.13;3.92;;;5.40;99.90;;;;;;5025949;28;20057;-62
2021/11/26 10:22:27;;;;;;;9.48;4.10;;;5.60;99.90;;;;;;5028367;28;20132;-62
2021/11/26 10:24:59;;;;;;;13.30;5.10;;;5.70;99.90;;;;;;5027351;28;20128;-62
2021/11/26 10:27:51;;;;;;;8.05;3.65;;;5.80;99.90;;;;;;5026468;28;20427;-62
2021/11/26 10:30:20;;;;;;;;;;;5.90;99.90;;;;;;5027886;28;20106;-62
2021/11/26 10:33:06;;;;;;;13.30;4.28;;;5.90;99.90;;;;;;4995124;28;20002;-60
2021/11/26 10:35:38;;;;;;;10.68;3.85;;;6.10;99.90;;;;;;4998749;28;20052;-62
2021/11/26 10:38:10;;;;;;;;;;;6.20;99.90;;;;;;5012470;28;20042;-58
2021/11/26 10:40:39;;;;;;;9.85;4.10;;;6.30;99.90;;;;;;5001895;28;19924;-53
2021/11/26 10:43:14;;;;;;;12.07;4.22;;;6.60;99.90;;;;;;5011934;28;20053;-54
2021/11/26 10:48:32;;;;;;;17.02;4.97;;;6.50;99.90;;;;;;5032922;28;20068;-52
2021/11/26 10:59:27;;;;;;;13.48;5.40;;;6.10;99.90;;;;;;5028427;28;20077;-53
2021/11/26 11:01:53;;;;;;;13.07;4.63;;;6.00;99.90;;;;;;5015320;28;20076;-48
2021/11/26 11:04:22;;;;;;;14.52;5.53;;;5.90;99.90;;;;;;5016116;28;20100;-53
2021/11/26 11:07:03;;;;;;;11.07;4.40;;;5.70;99.90;;;;;;5032169;28;20057;-49
2021/11/26 11:09:50;;;;;;;11.45;5.25;;;5.60;99.90;;;;;;5015031;28;20045;-52
2021/11/26 11:12:16;;;;;;;13.52;5.15;;;5.60;99.90;;;;;;5005739;28;20155;-48
2021/11/26 11:14:54;;;;;;;10.63;5.63;;;5.50;99.90;;;;;;5014720;28;20053;-54
2021/11/26 11:17:21;;;;;;;14.85;5.22;;;5.50;99.90;;;;;;5032565;28;20053;-53
2021/11/26 11:19:47;;;;;;;15.23;5.32;;;5.50;99.90;;;;;;5031708;28;20136;-50
2021/11/26 11:22:14;;;;;;;14.40;5.63;;;5.50;99.90;;;;;;5032279;28;20045;-52
2021/11/26 11:24:40;;;;;;;15.45;5.95;;;5.60;99.90;;;;;;5031475;28;20115;-52
2021/11/26 11:27:06;;;;;;;17.80;6.15;;;5.60;99.90;;;;;;5014721;28;20623;-52
2021/11/26 11:29:32;;;;;;;21.05;7.40;;;5.60;99.90;;;;;;5030104;28;20080;-55
2021/11/26 11:32:00;;;;;;;15.45;6.10;;;5.70;99.90;;;;;;5012774;28;20053;-50
2021/11/26 11:34:29;;;;;;;14.20;6.22;;;5.70;99.90;;;;;;4997638;28;20049;-52
2021/11/26 11:37:00;;;;;;;16.00;6.18;;;5.70;99.90;;;;;;4997927;28;20571;-55
2021/11/26 11:39:26;;;;;;;13.85;6.63;;;5.80;99.90;;;;;;5031586;28;20049;-53
2021/11/26 11:41:58;;;;;;;15.57;6.00;;;5.80;99.90;;;;;;5030171;28;20045;-48
2021/11/26 11:44:36;;;;;;;13.02;7.28;;;5.80;99.90;;;;;;5007515;28;20112;-48
2021/11/26 11:47:21;;;;;;;18.88;6.65;;;5.80;99.90;;;;;;5001492;28;20054;-51
2021/11/26 11:49:48;;;;;;;11.38;5.80;;;5.90;99.90;;;;;;5012027;28;20044;-53
2021/11/26 11:52:15;;;;;;;16.20;6.00;;;5.90;99.90;;;;;;4994558;28;20048;-50
2021/11/26 11:54:47;;;;;;;15.75;7.00;;;5.90;99.90;;;;;;5026038;28;20053;-55
2021/11/26 11:57:25;;;;;;;16.08;7.10;;;6.00;99.90;;;;;;5035286;28;20052;-53
2021/11/26 11:59:52;;;;;;;15.82;6.90;;;6.10;99.90;;;;;;5001327;28;20053;-55
2021/11/26 12:02:26;;;;;;;16.67;8.02;;;6.10;99.90;;;;;;5005615;28;20153;-53
2021/11/26 12:04:54;;;;;;;16.27;7.28;;;6.20;99.90;;;;;;5012928;28;20131;-56
2021/11/26 12:07:30;;;;;;;15.35;7.70;;;6.10;99.90;;;;;;5026021;28;20045;-56
2021/11/26 12:10:12;;;;;;;12.07;6.75;;;6.10;99.90;;;;;;5001552;28;20107;-54
2021/11/26 12:12:54;;;;;;;13.98;6.70;;;6.10;99.90;;;;;;5023143;28;20555;-53
2021/11/26 12:15:32;;;;;;;14.98;7.65;;;6.00;99.90;;;;;;5016126;28;20113;-52
2021/11/26 12:18:05;;;;;;;14.13;7.32;;;5.90;99.90;;;;;;5019232;28;20049;-55
2021/11/26 12:20:32;;;;;;;18.50;7.32;;;5.90;99.90;;;;;;5016463;28;20042;-55
2021/11/26 12:23:11;;;;;;;13.77;6.53;;;5.80;99.90;;;;;;4982226;28;20102;-52
2021/11/26 12:25:45;;;;;;;16.70;7.13;;;5.90;99.90;;;;;;5007952;28;20058;-55
2021/11/26 12:28:20;;;;;;;12.23;6.45;;;5.80;99.90;;;;;;5005730;28;20092;-50
2021/11/26 12:31:01;;;;;;;12.30;6.13;;;5.80;99.90;;;;;;5009222;28;20045;-50
2021/11/26 12:33:28;;;;;;;13.20;7.60;;;5.80;99.90;;;;;;5021552;28;20411;-50
2021/11/26 12:36:00;;;;;;;15.32;6.07;;;5.80;99.90;;;;;;5014515;28;20049;-56
2021/11/26 12:38:38;;;;;;;16.80;6.03;;;5.80;99.90;;;;;;5000339;28;20037;-49
2021/11/26 12:41:05;;;;;;;19.98;7.43;;;5.80;99.90;;;;;;5022206;28;20041;-50
2021/11/26 12:43:49;;;;;;;13.02;6.60;;;5.80;99.90;;;;;;5016034;28;20497;-51
2021/11/26 12:46:25;;;;;;;15.55;5.88;;;5.80;99.90;;;;;;5004612;28;20065;-48
2021/11/26 12:51:49;;;;;;;11.38;5.40;;;5.70;99.90;;;;;;4989792;28;20050;-55
2021/11/26 12:54:27;;;;;;;13.32;5.47;;;5.80;99.90;;;;;;4991680;28;20901;-53
2021/11/26 12:56:56;;;;;;;12.25;5.22;;;5.80;99.90;;;;;;4980510;28;20483;-53
2021/11/26 12:59:43;;;;;;;10.55;5.70;;;5.80;99.90;;;;;;5006493;28;20653;-49
2021/11/26 13:02:19;;;;;;;10.10;5.30;;;5.70;99.90;;;;;;4992541;28;20049;-52
2021/11/26 13:04:52;;;;;;;13.07;6.25;;;5.70;99.90;;;;;;4995095;28;20051;-55
2021/11/26 13:07:23;;;;;;;12.95;5.93;;;5.70;99.90;;;;;;5024582;28;20072;-52
2021/11/26 13:09:56;;;;;;;10.15;4.82;;;5.70;99.90;;;;;;4980856;28;20083;-51